Trapezitza — 9HAZ8 — position and weather

sailwx.info

Track history (hours):
 
Tides and Currents Weather Stations Pressure Air Temp Water Temp Dewpoint Dewpoint Depression Visibility Wind Speed Wind Dir Waves Ship Positions

Trapezitza

Last reported at 2018-Feb-17 20:42 UTC. Time now 2018-Feb-20 07:58 UTC.
Position N 36°20' E 014°51'.

Length 169 m; draft 5.3 m.

Type: Ship (hazmat cat B). MMSI: 249637000.

Date/timePositionNaut miles runAvg speedWind from/ knotsBaromVisibWave heightAir tempDewpointWater temp
2018-Feb-17 20:42N 36°20' E 014°51'212.8
2018-Feb-17 20:30N 36°20' E 014°48'612.5
2018-Feb-17 20:00N 36°22' E 014°40'712.4
2018-Feb-17 19:28N 36°24' E 014°32'612.4
2018-Feb-17 19:01N 36°26' E 014°26'612.2
2018-Feb-17 18:30N 36°28' E 014°19'612.1
2018-Feb-17 18:00N 36°30' E 014°11'612.0
2018-Feb-17 17:29N 36°33' E 014°04'63612.8
2018-Feb-15 15:55N 40°55' E 001°41'  
Track history (hours):
 
Tides and Currents Weather Stations Pressure Air Temp Water Temp Dewpoint Dewpoint Depression Visibility Wind Speed Wind Dir Waves Ship Positions

Trapezitza

Last reported at 2018-Feb-17 20:42 UTC. Time now 2018-Feb-20 07:58 UTC.
Position N 36°20' E 014°51'.

Length 169 m; draft 5.3 m.

Type: Ship (hazmat cat B). MMSI: 249637000.

Date/timePositionNaut miles runAvg speedWind from/ knotsBaromVisibWave heightAir tempDewpointWater temp
2018-Feb-17 20:42N 36°20' E 014°51'212.8
2018-Feb-17 20:30N 36°20' E 014°48'612.5
2018-Feb-17 20:00N 36°22' E 014°40'712.4
2018-Feb-17 19:28N 36°24' E 014°32'612.4
2018-Feb-17 19:01N 36°26' E 014°26'612.2
2018-Feb-17 18:30N 36°28' E 014°19'612.1
2018-Feb-17 18:00N 36°30' E 014°11'612.0
2018-Feb-17 17:29N 36°33' E 014°04'63612.8
2018-Feb-15 15:55N 40°55' E 001°41'  

Dump ship's entire track history